Old Fields, WV (26845)

11:30 AM EDT on September 01, 2015 (GMT -0400)
Old Fields Rd. | | Change Station
CLOSE
Current Station
Personal Weather Station
Location: Old Fields, WV
Elevation: 1040 ft
Nearby Weather Stations

Elev 1040 ft 39.17 °N, 78.98 °W | Updated 6 seconds ago

Clear
Clear
81.1 °F
Feels Like 80 °F
N
2.1
Wind Variable Wind from East
Gusts 2.1 mph

Today
High -- | Low -- °F
--% Chance of Precip.
Yesterday
High -- | Low -- °F
Precip. -- in
6:44 AM 7:46 PM
Waning Gibbous, 88% visible
Pressure 30.16 in
Visibility 10.0 miles
Clouds Clear
Heat Index 80 °F
Dew Point 46 °F
Humidity 29%
Rainfall 0.00 in
Snow Depth Not available.
UV 7 out of 12
Pollen 9.70 out of 12
Air Quality Not available.
Flu Activity Not available.
METAR KW99 011515Z AUTO 00000KT 10SM CLR 28/19 A3016 RMK AO2 T02760189
Pressure 30.16 in
Visibility 10.0 miles
Clouds Clear
Heat Index 80 °F
Dew Point 46 °F
Humidity 29%
Rainfall 0.00 in
Snow Depth Not available.
UV 7 out of 12
Pollen 9.70 out of 12
Air Quality Not available.
Flu Activity Not available.
METAR KW99 011515Z AUTO 00000KT 10SM CLR 28/19 A3016 RMK AO2 T02760189

10-Day Weather Forecast

×

Almanac

Astronomy

Sep. 01, 2015 Rise Set
Actual Time
Civil Twilight
Nautical Twilight
Astronomical Twilight
Moon
Length of Visible Light
Length of Day
Tomorrow will be .
, % of the Moon is Illuminated

Today's Extremes

State Highs State Lows

Community

WunderPhotos

Upload Photos

1,851,523 photos uploaded!

WunderBlogs® & News

Nearby

Air Quality

  Air Quality AQ Index Pollutant
Not available.

Snow Depth

Station Depth Elevation

Earthquake Activity

City Distance Mag. Time & Date
Minimum magnitude displayed is 2.5.

Coastal Water Temperatures

Place Temperature

Stations

Nearby Weather Stations

Station Location Temp. Windchill Dew Point Humidity Wind Precip. Elev Updated Type